^^
Datos históricos de la estación: Murcia-Puente Tocinos
Diario Informe para Septiembre 30, 2019 Unidades:  Métrico    Ingés   Ambas
Diario Semanal Mensual Anual
  Máxima: Mínima: Promedio:
Temperatura: 23 °C 13.9 °C 17.4 °C
Punto de rocio: 13.8 °C 11.5 °C 12.4 °C
Humedad: 90% 52.6% 74%
Velocidad viento: 18.4km/h 0km/h 7.4km/h
Racha viento: 33.8km/h - -
Viento- - ESE
Presión: 1017.4 hPa 1013.7 hPa -
Precipitación: 0.0 mm    
 
 
Tabla de datos para Septiembre 30, 2019
Hora Temperatura Punto de rocio Presión Viento Velocidad viento Racha viento Humedad Intensidad lluvia(por hora) Nubes
00:04 15.2 °C 12.7 °C 1017.1 hPa NE 6.5 km/h 11.3 km/h 84.9% 0.0 mm
00:09 15.2 °C 12.7 °C 1017.1 hPa NE 6.3 km/h 9.7 km/h 85% 0.0 mm
00:14 15.3 °C 12.8 °C 1017.1 hPa ENE 5.8 km/h 8.4 km/h 85% 0.0 mm
00:19 15.3 °C 12.7 °C 1017.3 hPa Este 5 km/h 8 km/h 84.8% 0.0 mm
00:24 15.3 °C 12.6 °C 1017.3 hPa Este 3.9 km/h 8 km/h 84.2% 0.0 mm
00:29 15.2 °C 12.5 °C 1017.3 hPa Este 3.2 km/h 7.4 km/h 84% 0.0 mm
00:34 15.2 °C 12.5 °C 1017.3 hPa NE 2.2 km/h 8 km/h 84% 0.0 mm
00:39 15.1 °C 12.6 °C 1017.2 hPa NE 3.3 km/h 8 km/h 84.9% 0.0 mm
00:44 14.9 °C 12.4 °C 1017.2 hPa NE 4.7 km/h 9.3 km/h 85% 0.0 mm
00:49 14.8 °C 12.5 °C 1017.3 hPa NE 5.1 km/h 10 km/h 85.9% 0.0 mm
00:54 14.7 °C 12.4 °C 1017.3 hPa NE 5.8 km/h 9.7 km/h 86% 0.0 mm
00:59 14.7 °C 12.5 °C 1017.3 hPa NE 5.2 km/h 9.7 km/h 86.8% 0.0 mm
01:04 14.7 °C 12.5 °C 1017.4 hPa NE 4.6 km/h 8 km/h 87% 0.0 mm
01:09 14.6 °C 12.4 °C 1017.4 hPa NE 3.7 km/h 5 km/h 87% 0.0 mm
01:14 14.6 °C 12.4 °C 1017.4 hPa NE 2.2 km/h 7.6 km/h 87% 0.0 mm
01:19 14.6 °C 12.4 °C 1017.4 hPa NNE 2.6 km/h 8 km/h 87% 0.0 mm
01:24 14.5 °C 12.3 °C 1017.2 hPa NE 3.2 km/h 8 km/h 87.1% 0.0 mm
01:29 14.4 °C 12.4 °C 1017.2 hPa NE 3.2 km/h 8.4 km/h 88% 0.0 mm
01:34 14.4 °C 12.4 °C 1017.2 hPa NE 3.2 km/h 9.5 km/h 88% 0.0 mm
01:39 14.3 °C 12.4 °C 1017.2 hPa NE 4.2 km/h 9.7 km/h 88% 0.0 mm
01:44 14.3 °C 12.3 °C 1017.2 hPa NE 5.8 km/h 8 km/h 88% 0.0 mm
01:49 14.3 °C 12.4 °C 1017.3 hPa ENE 4.8 km/h 8 km/h 88% 0.0 mm
01:54 14.4 °C 12.4 °C 1017.3 hPa Este 3.2 km/h 8 km/h 88% 0.0 mm
01:59 14.4 °C 12.5 °C 1017.3 hPa Este 3.1 km/h 7.4 km/h 88% 0.0 mm
02:04 14.5 °C 12.6 °C 1017.3 hPa Este 2.9 km/h 8 km/h 88% 0.0 mm
02:09 14.5 °C 12.5 °C 1017.2 hPa Este 2.7 km/h 6.4 km/h 87.8% 0.0 mm
02:14 14.4 °C 12.4 °C 1017.2 hPa Este 2.2 km/h 6.4 km/h 87.4% 0.0 mm
02:19 14.4 °C 12.4 °C 1017.2 hPa Este 1.3 km/h 4.8 km/h 88% 0.0 mm
02:24 14.4 °C 12.4 °C 1017.2 hPa Calm     88% 0.0 mm
02:29 14.3 °C 12.4 °C 1017.2 hPa Calm   3.9 km/h 88% 0.0 mm
02:34 14.3 °C 12.3 °C 1017.2 hPa Calm   7.4 km/h 88% 0.0 mm
02:39 14.3 °C 12.3 °C 1017.0 hPa ENE 1.1 km/h 8 km/h 88% 0.0 mm
02:44 14.2 °C 12.4 °C 1017.0 hPa ENE 2.9 km/h 8 km/h 88.9% 0.0 mm
02:49 14.2 °C 12.4 °C 1017.0 hPa ENE 2.6 km/h 5.6 km/h 89% 0.0 mm
02:54 14.2 °C 12.4 °C 1016.8 hPa ENE 2.2 km/h 5.6 km/h 89% 0.0 mm
02:59 14.2 °C 12.4 °C 1016.8 hPa ENE 2.2 km/h 4.8 km/h 89% 0.0 mm
03:04 14.1 °C 12.3 °C 1016.8 hPa ENE 2.2 km/h   89% 0.0 mm
03:09 14.1 °C 12.3 °C 1016.7 hPa ENE 1.3 km/h   89% 0.0 mm
03:14 14.1 °C 12.3 °C 1016.7 hPa Calm     89% 0.0 mm
03:19 14.1 °C 12.3 °C 1016.7 hPa Calm     89% 0.0 mm
03:24 14.1 °C 12.3 °C 1016.6 hPa Calm     89% 0.0 mm
03:29 14.1 °C 12.3 °C 1016.6 hPa Calm     89% 0.0 mm
03:34 14.1 °C 12.3 °C 1016.6 hPa Calm     89% 0.0 mm
03:39 14.1 °C 12.4 °C 1016.4 hPa Calm     89.4% 0.0 mm
03:44 14.1 °C 12.5 °C 1016.4 hPa Calm     90% 0.0 mm
03:49 14.2 °C 12.6 °C 1016.4 hPa Calm     90% 0.0 mm
03:54 14.2 °C 12.5 °C 1016.4 hPa Calm     89.6% 0.0 mm
03:59 14.2 °C 12.4 °C 1016.4 hPa Calm   3.2 km/h 89% 0.0 mm
04:04 14.1 °C 12.2 °C 1016.4 hPa Calm   7.4 km/h 88.4% 0.0 mm
04:09 14.1 °C 12.2 °C 1016.2 hPa Este 1.3 km/h 8 km/h 88% 0.0 mm
04:14 14 °C 12.1 °C 1016.2 hPa Este 3.2 km/h 6.4 km/h 88% 0.0 mm
04:19 14 °C 12.1 °C 1016.3 hPa Este 1.9 km/h 1.9 km/h 88% 0.0 mm
04:24 14 °C 12 °C 1016.3 hPa Calm     87.7% 0.0 mm
04:29 14 °C 11.9 °C 1016.3 hPa Calm     87% 0.0 mm
04:34 13.9 °C 11.8 °C 1016.3 hPa Calm   3.7 km/h 87% 0.0 mm
04:39 13.9 °C 11.8 °C 1016.1 hPa Calm   3.2 km/h 87% 0.0 mm
04:44 13.9 °C 11.8 °C 1016.1 hPa Calm     87% 0.0 mm
04:49 13.9 °C 11.8 °C 1016.1 hPa Calm     87% 0.0 mm
04:54 13.9 °C 11.8 °C 1016.1 hPa Calm     87% 0.0 mm
04:59 14 °C 11.9 °C 1016.1 hPa Calm   5.8 km/h 87% 0.0 mm
05:04 14.1 °C 11.9 °C 1016.1 hPa Calm   7.4 km/h 87% 0.0 mm
05:09 14.1 °C 11.9 °C 1015.9 hPa SSO 1.5 km/h 8 km/h 86.6% 0.0 mm
05:14 14.1 °C 11.8 °C 1015.9 hPa SSO 3.9 km/h 8 km/h 86% 0.0 mm
05:19 14.1 °C 11.7 °C 1015.9 hPa SSO 3.9 km/h 8 km/h 85.8% 0.0 mm
05:24 14.1 °C 11.6 °C 1015.9 hPa Sur 3.9 km/h 8 km/h 85% 0.0 mm
05:29 14.2 °C 11.7 °C 1015.9 hPa Sur 3.9 km/h 8 km/h 85% 0.0 mm
05:34 14.2 °C 11.7 °C 1015.9 hPa SSO 3.9 km/h 8 km/h 85% 0.0 mm
05:39 14.2 °C 11.7 °C 1015.9 hPa Sur 4.2 km/h 9.5 km/h 85% 0.0 mm
05:44 14.2 °C 11.8 °C 1015.9 hPa SSE 4.7 km/h 9.7 km/h 85.4% 0.0 mm
05:49 14.2 °C 11.7 °C 1015.9 hPa SE 5.1 km/h 9.7 km/h 85% 0.0 mm
05:54 14.2 °C 11.7 °C 1015.7 hPa SE 5.8 km/h 11.1 km/h 85% 0.0 mm
05:59 14 °C 11.5 °C 1015.7 hPa SSE 6.1 km/h 11.3 km/h 85% 0.0 mm
06:04 14 °C 11.6 °C 1015.8 hPa Sur 6.5 km/h 11.1 km/h 85.6% 0.0 mm
06:09 14 °C 11.7 °C 1015.8 hPa Sur 6.6 km/h 11.3 km/h 86% 0.0 mm
06:14 13.9 °C 11.6 °C 1015.8 hPa Sur 6.9 km/h 11.3 km/h 86% 0.0 mm
06:19 13.9 °C 11.6 °C 1015.8 hPa Sur 6.9 km/h 9.7 km/h 86% 0.0 mm
06:24 13.9 °C 11.6 °C 1015.6 hPa SO 6.9 km/h 10 km/h 86% 0.0 mm
06:29 14 °C 11.7 °C 1015.6 hPa SO 6.2 km/h 11.1 km/h 86% 0.0 mm
06:34 14 °C 11.7 °C 1015.7 hPa OSO 5 km/h 11.3 km/h 86% 0.0 mm
06:39 14 °C 11.5 °C 1015.7 hPa SO 5.6 km/h 11.3 km/h 85% 0.0 mm
06:44 14 °C 11.5 °C 1015.7 hPa SO 6.5 km/h 10 km/h 85% 0.0 mm
06:49 14 °C 11.5 °C 1015.7 hPa SSO 6.2 km/h 9.7 km/h 85% 0.0 mm
06:54 14 °C 11.5 °C 1015.7 hPa SO 5.8 km/h 9.7 km/h 85% 0.0 mm
06:59 13.9 °C 11.5 °C 1015.7 hPa SSO 5.3 km/h 9.7 km/h 85% 0.0 mm
07:04 14 °C 11.5 °C 1015.8 hPa OSO 4.6 km/h 9.7 km/h 84.9% 0.0 mm
07:09 14 °C 11.5 °C 1015.8 hPa OSO 4.7 km/h 9.7 km/h 85% 0.0 mm
07:14 14 °C 11.5 °C 1015.8 hPa SSO 4.7 km/h 8 km/h 85% 0.0 mm
07:19 14 °C 11.5 °C 1015.9 hPa SO 4.3 km/h 8 km/h 85% 0.0 mm
07:24 14.1 °C 11.6 °C 1015.9 hPa OSO 3.9 km/h 8 km/h 85% 0.0 mm
07:29 14.1 °C 11.6 °C 1015.9 hPa SO 3.9 km/h 8 km/h 85% 0.0 mm
07:34 14.1 °C 11.6 °C 1015.9 hPa SO 3.9 km/h 8.4 km/h 85% 0.0 mm
07:39 14.1 °C 11.6 °C 1015.9 hPa SSO 3.9 km/h 8 km/h 85% 0.0 mm
07:44 14.2 °C 11.7 °C 1015.9 hPa Sur 3.9 km/h 8.4 km/h 85.4% 0.0 mm
07:49 14.1 °C 11.8 °C 1016.0 hPa Sur 4.6 km/h 9.3 km/h 86% 0.0 mm
07:54 14.1 °C 11.8 °C 1016.0 hPa SSE 5.8 km/h 9.7 km/h 86% 0.0 mm
07:59 14.1 °C 11.8 °C 1016.0 hPa Sur 5.4 km/h 8 km/h 86.4% 0.0 mm
08:04 14.2 °C 12 °C 1016.1 hPa SSO 5 km/h 8 km/h 87% 0.0 mm
08:09 14.2 °C 12.1 °C 1016.1 hPa Sur 4.6 km/h 8 km/h 87% 0.0 mm
08:14 14.2 °C 12.1 °C 1016.1 hPa SSE 3.9 km/h 9.3 km/h 87% 0.0 mm
08:19 14.4 °C 12.1 °C 1016.1 hPa SSO 4.3 km/h 9.7 km/h 86.3% 0.0 mm
08:24 14.4 °C 12.1 °C 1016.1 hPa SSO 5 km/h 9.7 km/h 86% 0.0 mm
08:29 14.5 °C 12.2 °C 1016.1 hPa Sur 5.6 km/h 9.7 km/h 86% 0.0 mm
08:34 14.6 °C 12.3 °C 1016.1 hPa SSO 6.5 km/h 9.7 km/h 86% 0.0 mm
08:39 14.7 °C 12.4 °C 1016.1 hPa SO 5.7 km/h 8 km/h 86% 0.0 mm
08:44 14.8 °C 12.3 °C 1016.1 hPa Oeste 4.7 km/h 9.3 km/h 85.3% 0.0 mm
08:49 14.8 °C 12.4 °C 1016.2 hPa OSO 4.8 km/h 9.7 km/h 85.2% 0.0 mm
08:54 14.9 °C 12.4 °C 1016.2 hPa Oeste 5 km/h 9.7 km/h 85% 0.0 mm
08:59 15 °C 12.5 °C 1016.2 hPa OSO 5 km/h 9.7 km/h 85% 0.0 mm
09:04 15.1 °C 12.5 °C 1016.3 hPa OSO 5 km/h 10 km/h 84.7% 0.0 mm
09:09 15.2 °C 12.6 °C 1016.3 hPa OSO 5.3 km/h 9.7 km/h 84.6% 0.0 mm
09:14 15.2 °C 12.6 °C 1016.3 hPa ONO 5.8 km/h 9.7 km/h 84.6% 0.0 mm
09:19 15.3 °C 12.7 °C 1016.3 hPa ONO 5.5 km/h 11.1 km/h 84.2% 0.0 mm
09:24 15.4 °C 12.6 °C 1016.3 hPa Oeste 5 km/h 11.3 km/h 83.4% 0.0 mm
09:29 15.5 °C 12.6 °C 1016.3 hPa Oeste 5 km/h 11.3 km/h 82.5% 0.0 mm
09:34 15.6 °C 12.7 °C 1016.3 hPa Oeste 5 km/h 9.7 km/h 82.8% 0.0 mm
09:39 15.8 °C 12.8 °C 1016.3 hPa SO 4 km/h 8.4 km/h 82.2% 0.0 mm
09:44 15.9 °C 12.5 °C 1016.3 hPa SO 2.2 km/h 8 km/h 80.3% 0.0 mm
09:49 16 °C 12.5 °C 1016.3 hPa SO 3.2 km/h 9.3 km/h 80% 0.0 mm
09:54 15.9 °C 12.4 °C 1016.3 hPa Oeste 4.7 km/h 9.7 km/h 79.8% 0.0 mm
09:59 16 °C 12.6 °C 1016.3 hPa SSO 4.8 km/h 9.7 km/h 80% 0.0 mm
10:04 16.3 °C 12.7 °C 1016.3 hPa ESE 5 km/h 8 km/h 79% 0.0 mm
10:09 16.7 °C 12.7 °C 1016.3 hPa ESE 4.1 km/h 11.1 km/h 77.2% 0.0 mm
10:14 16.9 °C 12.5 °C 1016.3 hPa SO 2.9 km/h 11.3 km/h 75.3% 0.0 mm
10:19 16.8 °C 12.4 °C 1016.3 hPa OSO 3.7 km/h 11.3 km/h 75.2% 0.0 mm
10:24 16.8 °C 12.3 °C 1016.2 hPa OSO 5 km/h 9.7 km/h 75% 0.0 mm
10:29 16.7 °C 12.1 °C 1016.2 hPa OSO 4.6 km/h 8 km/h 74.2% 0.0 mm
10:34 16.7 °C 12.1 °C 1016.3 hPa NNE 3.9 km/h 8 km/h 74% 0.0 mm
10:39 16.8 °C 12.2 °C 1016.3 hPa North 3.5 km/h 8 km/h 74% 0.0 mm
10:44 17.1 °C 12.2 °C 1016.3 hPa NE 2.9 km/h 9.5 km/h 73.1% 0.0 mm
10:49 17.3 °C 12.4 °C 1016.3 hPa NNO 3.3 km/h 9.7 km/h 72.8% 0.0 mm
10:54 17.7 °C 12.3 °C 1016.1 hPa NE 3.9 km/h 8 km/h 70.8% 0.0 mm
10:59 18 °C 12.2 °C 1016.1 hPa SE 4.2 km/h 9.5 km/h 68.7% 0.0 mm
11:04 18.1 °C 11.9 °C 1016.1 hPa SSE 4.6 km/h 11.1 km/h 67.1% 0.0 mm
11:09 18 °C 11.8 °C 1016.0 hPa SE 5.1 km/h 11.3 km/h 67.3% 0.0 mm
11:14 18 °C 11.8 °C 1016.0 hPa NNE 5.8 km/h 11.3 km/h 67.1% 0.0 mm
11:19 18.2 °C 11.9 °C 1016.0 hPa Oeste 5.3 km/h 11.3 km/h 66.9% 0.0 mm
11:24 18.4 °C 11.9 °C 1015.9 hPa SE 4.7 km/h 9.7 km/h 66% 0.0 mm
11:29 18.5 °C 12 °C 1015.9 hPa SE 4.8 km/h 9.7 km/h 66% 0.0 mm
11:34 18.8 °C 12.2 °C 1015.9 hPa Este 5 km/h 8 km/h 65.6% 0.0 mm
11:39 19.2 °C 12 °C 1015.9 hPa NO 3.9 km/h 11.9 km/h 63.1% 0.0 mm
11:44 19.3 °C 11.8 °C 1015.9 hPa ONO 2.2 km/h 11.3 km/h 61.5% 0.0 mm
11:49 19.3 °C 11.8 °C 1015.9 hPa Oeste 3.3 km/h 11.9 km/h 61.9% 0.0 mm
11:54 19.3 °C 11.6 °C 1015.8 hPa Este 5 km/h 11.3 km/h 61.2% 0.0 mm
11:59 19.2 °C 11.7 °C 1015.8 hPa NE 5.4 km/h 9.7 km/h 61.9% 0.0 mm
12:04 19.4 °C 11.9 °C 1015.8 hPa NE 5.8 km/h 9.7 km/h 61.9% 0.0 mm
12:09 19.7 °C 11.9 °C 1015.7 hPa NE 5.1 km/h 10.3 km/h 60.6% 0.0 mm
12:14 19.8 °C 11.7 °C 1015.7 hPa Este 3.9 km/h 11.3 km/h 59.6% 0.0 mm
12:19 19.8 °C 11.8 °C 1015.7 hPa NNO 4.3 km/h 11.3 km/h 59.9% 0.0 mm
12:24 19.9 °C 11.8 °C 1015.5 hPa OSO 5 km/h 11.9 km/h 59.5% 0.0 mm
12:29 20 °C 11.9 °C 1015.5 hPa Oeste 4.6 km/h 11.9 km/h 59.6% 0.0 mm
12:34 20.1 °C 11.9 °C 1015.5 hPa ENE 3.9 km/h 11.3 km/h 59.3% 0.0 mm
12:39 20.2 °C 12 °C 1015.4 hPa NNE 4.6 km/h 13 km/h 59.2% 0.0 mm
12:44 20.5 °C 12.1 °C 1015.4 hPa North 5.8 km/h 12.9 km/h 58.8% 0.0 mm
12:49 20.8 °C 12 °C 1015.4 hPa NNE 5.8 km/h 13 km/h 57.5% 0.0 mm
12:54 20.7 °C 11.9 °C 1015.3 hPa North 5.8 km/h 13 km/h 57% 0.0 mm
12:59 20.7 °C 11.9 °C 1015.3 hPa NNE 6.6 km/h 13.7 km/h 57.4% 0.0 mm
13:04 20.7 °C 12 °C 1015.3 hPa NNE 7.6 km/h 14.5 km/h 57.6% 0.0 mm
13:09 20.8 °C 12 °C 1015.2 hPa NE 7.1 km/h 11.3 km/h 57.2% 0.0 mm
13:14 21 °C 12.2 °C 1015.2 hPa ENE 6.5 km/h 11.3 km/h 57% 0.0 mm
13:19 21.3 °C 12.3 °C 1015.2 hPa NE 6.2 km/h 13 km/h 56.2% 0.0 mm
13:24 21.4 °C 12.3 °C 1015.0 hPa ENE 5.8 km/h 20.4 km/h 55.9% 0.0 mm
13:29 21.4 °C 12.1 °C 1015.0 hPa ENE 6.8 km/h 20.9 km/h 55.4% 0.0 mm
13:34 21.5 °C 12.2 °C 1015.0 hPa NE 8.4 km/h 18.5 km/h 55.5% 0.0 mm
13:39 21.6 °C 12.2 °C 1014.8 hPa NNE 8 km/h 19.3 km/h 55% 0.0 mm
13:44 21.8 °C 12.3 °C 1014.8 hPa NNE 7.6 km/h 14.8 km/h 54.9% 0.0 mm
13:49 22 °C 12.3 °C 1014.8 hPa NE 7.3 km/h 14.5 km/h 54.3% 0.0 mm
13:54 22.1 °C 12.3 °C 1014.6 hPa NNE 6.9 km/h 13.7 km/h 54% 0.0 mm
13:59 22.2 °C 12.4 °C 1014.6 hPa North 6 km/h 18.3 km/h 53.8% 0.0 mm
14:04 22.2 °C 12.4 °C 1014.6 hPa North 5 km/h 19.3 km/h 53.7% 0.0 mm
14:09 22.3 °C 12.4 °C 1014.3 hPa NE 7 km/h 19.3 km/h 53.5% 0.0 mm
14:14 22.3 °C 12.3 °C 1014.3 hPa NE 10 km/h 16.7 km/h 53% 0.0 mm
14:19 22.5 °C 12.5 °C 1014.3 hPa NE 9 km/h 21.7 km/h 53.4% 0.0 mm
14:24 22.8 °C 12.7 °C 1014.2 hPa NE 7.6 km/h 22.5 km/h 52.7% 0.0 mm
14:29 23 °C 12.8 °C 1014.2 hPa NE 9 km/h 23.7 km/h 52.6% 0.0 mm
14:34 22.7 °C 13.2 °C 1014.2 hPa NE 11.1 km/h 27.8 km/h 55% 0.0 mm
14:39 22.5 °C 13.5 °C 1014.2 hPa NE 13.4 km/h 29.6 km/h 57% 0.0 mm
14:44 22.3 °C 13.6 °C 1014.2 hPa NE 17.2 km/h 29 km/h 58% 0.0 mm
14:49 22.3 °C 13.6 °C 1014.2 hPa NE 17.2 km/h 31.5 km/h 58% 0.0 mm
14:54 22.2 °C 13.7 °C 1014.2 hPa NE 17.2 km/h 32.2 km/h 58.8% 0.0 mm
14:59 22.2 °C 13.7 °C 1014.2 hPa NE 16.7 km/h 30.9 km/h 58.4% 0.0 mm
15:04 22 °C 13.6 °C 1014.2 hPa NE 16.1 km/h 32.2 km/h 58.9% 0.0 mm
15:09 22.2 °C 13.8 °C 1014.2 hPa ENE 16.2 km/h 32.2 km/h 59.2% 0.0 mm
15:14 22.2 °C 13.7 °C 1014.2 hPa ENE 16.4 km/h 30.6 km/h 58.8% 0.0 mm
15:19 22.5 °C 13.6 °C 1014.2 hPa Este 15.8 km/h 29 km/h 57.4% 0.0 mm
15:24 22.7 °C 13.6 °C 1014.2 hPa Este 14.8 km/h 26.2 km/h 56.7% 0.0 mm
15:29 22.7 °C 13.6 °C 1014.2 hPa ESE 14.1 km/h 27 km/h 56.4% 0.0 mm
15:34 22.5 °C 13.4 °C 1014.2 hPa Este 13 km/h 27.8 km/h 56.6% 0.0 mm
15:39 22.7 °C 13.5 °C 1014.1 hPa ESE 13 km/h 27.4 km/h 56.4% 0.0 mm
15:44 22.6 °C 13.4 °C 1014.1 hPa Este 13 km/h 24.1 km/h 56.2% 0.0 mm
15:49 22.6 °C 13.5 °C 1014.1 hPa ENE 12.7 km/h 28.2 km/h 56.6% 0.0 mm
15:54 22.6 °C 13.4 °C 1014.1 hPa Este 12.2 km/h 27.4 km/h 56.2% 0.0 mm
15:59 22.3 °C 13.2 °C 1014.1 hPa Este 13.4 km/h 29.6 km/h 56.4% 0.0 mm
16:04 22.2 °C 13.3 °C 1014.1 hPa ENE 14.8 km/h 29.6 km/h 57% 0.0 mm
16:09 22.2 °C 13.3 °C 1014.1 hPa ENE 14.4 km/h 29 km/h 56.9% 0.0 mm
16:14 22.1 °C 13 °C 1014.1 hPa NE 13.7 km/h 29.6 km/h 56.1% 0.0 mm
16:19 22.1 °C 13.1 °C 1014.1 hPa ENE 13.8 km/h 29 km/h 56.7% 0.0 mm
16:24 22.3 °C 13.1 °C 1014.0 hPa Este 14 km/h 24.1 km/h 56.1% 0.0 mm
16:29 22.3 °C 13 °C 1014.0 hPa ENE 13.3 km/h 25.9 km/h 55.7% 0.0 mm
16:34 22.5 °C 13 °C 1014.0 hPa NE 12.2 km/h 25.7 km/h 55.2% 0.0 mm
16:39 22.5 °C 12.8 °C 1013.9 hPa NE 12.1 km/h 27.8 km/h 54.4% 0.0 mm
16:44 22.1 °C 12.6 °C 1013.9 hPa NE 11.9 km/h 30.6 km/h 55.2% 0.0 mm
16:49 21.8 °C 12.4 °C 1013.9 hPa NE 13.6 km/h 30.6 km/h 55.4% 0.0 mm
16:54 21.7 °C 12.5 °C 1013.9 hPa NE 16.4 km/h 25.9 km/h 55.8% 0.0 mm
16:59 21.7 °C 12.5 °C 1013.9 hPa ENE 16.3 km/h 31.5 km/h 55.7% 0.0 mm
17:04 21.8 °C 12.6 °C 1013.9 hPa NE 16.1 km/h 32.2 km/h 56% 0.0 mm
17:09 21.8 °C 12.6 °C 1013.8 hPa NE 14.6 km/h 26.2 km/h 56% 0.0 mm
17:14 21.9 °C 12.8 °C 1013.8 hPa ENE 12.2 km/h 25.9 km/h 56.2% 0.0 mm
17:19 22.1 °C 12.9 °C 1013.8 hPa ENE 11.5 km/h 25.7 km/h 56% 0.0 mm
17:24 21.9 °C 12.9 °C 1013.8 hPa ENE 10.3 km/h 27 km/h 56.5% 0.0 mm
17:29 21.8 °C 12.9 °C 1013.8 hPa ENE 11.6 km/h 30.6 km/h 57% 0.0 mm
17:34 21.5 °C 12.8 °C 1013.8 hPa NE 13.7 km/h 30.6 km/h 57.6% 0.0 mm
17:39 21.2 °C 12.9 °C 1013.7 hPa ENE 15.5 km/h 30.6 km/h 59% 0.0 mm
17:44 21.2 °C 13 °C 1013.7 hPa ENE 18.4 km/h 25.7 km/h 59.4% 0.0 mm
17:49 21.2 °C 12.9 °C 1013.7 hPa NE 16.6 km/h 28.2 km/h 59.2% 0.0 mm
17:54 21 °C 12.9 °C 1013.7 hPa ENE 13.7 km/h 27.4 km/h 60% 0.0 mm
17:59 20.8 °C 12.8 °C 1013.7 hPa NE 14.2 km/h 29.8 km/h 60% 0.0 mm
18:04 20.6 °C 12.8 °C 1013.8 hPa ENE 14.8 km/h 30.6 km/h 61% 0.0 mm
18:09 20.5 °C 12.8 °C 1013.8 hPa NE 15.7 km/h 29 km/h 61.3% 0.0 mm
18:14 20.4 °C 12.9 °C 1013.8 hPa NE 17.2 km/h 25.9 km/h 62% 0.0 mm
18:19 20.3 °C 12.8 °C 1013.8 hPa NE 16.6 km/h 25.7 km/h 62% 0.0 mm
18:24 20.3 °C 13.1 °C 1013.8 hPa NE 15.6 km/h 24.1 km/h 63% 0.0 mm
18:29 20.4 °C 13 °C 1013.8 hPa NE 13.9 km/h 22.5 km/h 62.3% 0.0 mm
18:34 20.4 °C 13.1 °C 1013.9 hPa NE 11.1 km/h 27.8 km/h 63% 0.0 mm
18:39 20.2 °C 13 °C 1013.9 hPa NE 12.9 km/h 29.6 km/h 63.6% 0.0 mm
18:44 20 °C 13 °C 1013.9 hPa NE 15.6 km/h 29 km/h 64% 0.0 mm
18:49 19.9 °C 13 °C 1013.9 hPa NE 15.9 km/h 33.3 km/h 64.6% 0.0 mm
18:54 19.9 °C 13.1 °C 1013.9 hPa NE 16.4 km/h 33.8 km/h 64.9% 0.0 mm
18:59 19.7 °C 12.9 °C 1013.9 hPa NE 16 km/h 27.8 km/h 65% 0.0 mm
19:04 19.6 °C 12.9 °C 1013.9 hPa NE 15.6 km/h 27.4 km/h 65.1% 0.0 mm
19:09 19.6 °C 12.8 °C 1013.9 hPa ENE 15.6 km/h 25.7 km/h 65% 0.0 mm
19:14 19.6 °C 12.8 °C 1013.9 hPa NE 15.6 km/h 27.4 km/h 65.1% 0.0 mm
19:19 19.6 °C 13 °C 1013.9 hPa NE 15 km/h 29 km/h 66% 0.0 mm
19:24 19.6 °C 13.1 °C 1013.9 hPa NE 14 km/h 29 km/h 66% 0.0 mm
19:29 19.5 °C 12.9 °C 1013.9 hPa NE 14.6 km/h 27.8 km/h 65.7% 0.0 mm
19:34 19.4 °C 12.9 °C 1014.0 hPa NE 15.6 km/h 27.4 km/h 66% 0.0 mm
19:39 19.4 °C 12.9 °C 1014.0 hPa ENE 14.2 km/h 22.5 km/h 66% 0.0 mm
19:44 19.3 °C 12.8 °C 1014.0 hPa NE 11.9 km/h 22.5 km/h 66% 0.0 mm
19:49 19.3 °C 12.8 °C 1014.0 hPa NE 13 km/h 22.5 km/h 66% 0.0 mm
19:54 19.3 °C 12.8 °C 1014.0 hPa NE 14.8 km/h 24.1 km/h 66% 0.0 mm
19:59 19.1 °C 12.8 °C 1014.0 hPa NE 14.3 km/h 24.1 km/h 66.8% 0.0 mm
20:04 19.1 °C 12.8 °C 1014.1 hPa ENE 13.7 km/h 22.5 km/h 67% 0.0 mm
20:09 19.2 °C 12.9 °C 1014.1 hPa NE 12 km/h 20.4 km/h 67% 0.0 mm
20:14 19.2 °C 12.9 °C 1014.1 hPa NE 9.5 km/h 25.9 km/h 67% 0.0 mm
20:19 18.9 °C 12.6 °C 1014.2 hPa NE 11.1 km/h 25.9 km/h 66.9% 0.0 mm
20:24 18.8 °C 12.6 °C 1014.2 hPa NE 13.7 km/h 24.5 km/h 67.2% 0.0 mm
20:29 18.7 °C 12.4 °C 1014.2 hPa NE 13.8 km/h 24.1 km/h 66.9% 0.0 mm
20:34 18.6 °C 12.2 °C 1014.5 hPa NE 14 km/h 24.1 km/h 66.5% 0.0 mm
20:39 18.6 °C 12.4 °C 1014.5 hPa NE 13.9 km/h 24.5 km/h 67.3% 0.0 mm
20:44 18.3 °C 12.4 °C 1014.5 hPa NE 13.7 km/h 24.1 km/h 68.1% 0.0 mm
20:49 18.3 °C 12.4 °C 1014.5 hPa NE 13.7 km/h 24.1 km/h 68.9% 0.0 mm
20:54 18.2 °C 12.4 °C 1014.4 hPa NE 13.7 km/h 20.9 km/h 69% 0.0 mm
20:59 18.1 °C 12.3 °C 1014.4 hPa NE 13.4 km/h 20.9 km/h 69% 0.0 mm
21:04 17.9 °C 12.4 °C 1014.6 hPa NE 13 km/h 22.5 km/h 70% 0.0 mm
21:09 17.8 °C 12.4 °C 1014.6 hPa NE 12.6 km/h 22.5 km/h 70.6% 0.0 mm
21:14 17.7 °C 12.4 °C 1014.6 hPa NE 11.9 km/h 20.4 km/h 71% 0.0 mm
21:19 17.6 °C 12.4 °C 1014.8 hPa NE 12 km/h 20.9 km/h 71.4% 0.0 mm
21:24 17.5 °C 12.2 °C 1014.8 hPa NE 12.2 km/h 20.9 km/h 71% 0.0 mm
21:29 17.4 °C 12.3 °C 1014.8 hPa NE 12.8 km/h 20.9 km/h 72% 0.0 mm
21:34 17.3 °C 12.3 °C 1015.0 hPa NE 13.7 km/h 19.3 km/h 72.2% 0.0 mm
21:39 17.3 °C 12.4 °C 1015.0 hPa NE 12.3 km/h 16.1 km/h 73% 0.0 mm
21:44 17.2 °C 12.3 °C 1015.0 hPa NE 10 km/h 14.8 km/h 73.1% 0.0 mm
21:49 17.2 °C 12.5 °C 1015.1 hPa NE 9.8 km/h 14.5 km/h 74% 0.0 mm
21:54 17.1 °C 12.5 °C 1015.1 hPa NE 9.5 km/h 14.5 km/h 74% 0.0 mm
21:59 17.1 °C 12.5 °C 1015.1 hPa NE 9 km/h 14.5 km/h 74.5% 0.0 mm
22:04 16.9 °C 12.5 °C 1015.2 hPa NE 8.4 km/h 15.6 km/h 75.1% 0.0 mm
22:09 16.9 °C 12.7 °C 1015.2 hPa NE 8.4 km/h 16.1 km/h 76% 0.0 mm
22:14 16.9 °C 12.7 °C 1015.2 hPa NE 8.4 km/h 13.7 km/h 76.2% 0.0 mm
22:19 16.8 °C 12.8 °C 1015.2 hPa NE 7.6 km/h 14.5 km/h 77% 0.0 mm
22:24 16.8 °C 12.7 °C 1015.2 hPa NE 6.5 km/h 12.2 km/h 77% 0.0 mm
22:29 16.7 °C 12.8 °C 1015.2 hPa NE 6.6 km/h 13 km/h 77.9% 0.0 mm
22:34 16.6 °C 12.8 °C 1015.3 hPa NE 6.9 km/h 14.8 km/h 78.4% 0.0 mm
22:39 16.4 °C 12.8 °C 1015.3 hPa NE 7.5 km/h 14.8 km/h 79% 0.0 mm
22:44 16.4 °C 12.7 °C 1015.3 hPa NE 8.4 km/h 14.5 km/h 79% 0.0 mm
22:49 16.4 °C 12.7 °C 1015.3 hPa NE 7.6 km/h 12.9 km/h 79% 0.0 mm
22:54 16.4 °C 12.8 °C 1015.3 hPa ENE 6.5 km/h 11.3 km/h 79.2% 0.0 mm
22:59 16.4 °C 12.9 °C 1015.3 hPa Este 5 km/h 9.7 km/h 79.6% 0.0 mm
23:04 16.4 °C 12.8 °C 1015.4 hPa NNE 3.2 km/h 9.3 km/h 79.3% 0.0 mm
23:09 16.3 °C 12.8 °C 1015.4 hPa NE 3.9 km/h 9.7 km/h 80% 0.0 mm
23:14 16.2 °C 12.9 °C 1015.4 hPa NE 5 km/h 9.7 km/h 80.6% 0.0 mm
23:19 16.1 °C 12.8 °C 1015.4 hPa NE 5.6 km/h 11.9 km/h 81% 0.0 mm
23:24 16 °C 12.9 °C 1015.4 hPa NE 6.5 km/h 13 km/h 81.7% 0.0 mm
23:29 15.9 °C 12.8 °C 1015.4 hPa NE 6.9 km/h 12.9 km/h 82% 0.0 mm
23:34 15.8 °C 12.9 °C 1015.4 hPa NE 7.6 km/h 11.3 km/h 82.5% 0.0 mm
23:39 15.8 °C 12.9 °C 1015.3 hPa NE 6.9 km/h 11.1 km/h 83% 0.0 mm
23:44 15.7 °C 12.8 °C 1015.3 hPa NE 5.8 km/h 11.9 km/h 83% 0.0 mm
23:49 15.6 °C 12.9 °C 1015.3 hPa NE 6.5 km/h 11.9 km/h 84% 0.0 mm
23:54 15.5 °C 12.8 °C 1015.3 hPa NE 7.6 km/h 13.7 km/h 84% 0.0 mm
23:59 15.4 °C 12.8 °C 1015.3 hPa NE 8.1 km/h 14.8 km/h 84.7% 0.0 mm
Murcia-Puente Tocinos, España
Compliments of Weather Underground - 3 mb

La estación de MeteoMurcia.com, publica sus datos en los siguientes proyectos:

Weather Underground PWS IMURCIAP2 Meteoclimatic www.awekas.at

W3Counter
Web Analytics